sensor_id;sensor_type;location;lat;lon;timestamp;pressure;altitude;pressure_sealevel;temperature;humidity
50394;BME280;36308;46.312;25.288;2023-03-03T00:01:06;96167.25;;;5.47;63.07
50394;BME280;36308;46.312;25.288;2023-03-03T00:03:32;96161.13;;;5.46;63.37
50394;BME280;36308;46.312;25.288;2023-03-03T00:05:58;96158.66;;;5.45;63.12
50394;BME280;36308;46.312;25.288;2023-03-03T00:08:24;96141.19;;;5.31;63.15
50394;BME280;36308;46.312;25.288;2023-03-03T00:10:50;96161.13;;;5.46;63.25
50394;BME280;36308;46.312;25.288;2023-03-03T00:13:25;96161.13;;;5.46;63.36
50394;BME280;36308;46.312;25.288;2023-03-03T00:15:52;96152.53;;;5.44;63.34
50394;BME280;36308;46.312;25.288;2023-03-03T00:20:55;96155.78;;;5.46;63.39
50394;BME280;36308;46.312;25.288;2023-03-03T00:23:38;96150.06;;;5.43;63.32
50394;BME280;36308;46.312;25.288;2023-03-03T00:28:50;96142.66;;;5.45;63.83
50394;BME280;36308;46.312;25.288;2023-03-03T00:31:26;96142.66;;;5.45;63.49
50394;BME280;36308;46.312;25.288;2023-03-03T00:33:54;96135.72;;;5.44;63.52
50394;BME280;36308;46.312;25.288;2023-03-03T00:36:27;96142.66;;;5.45;63.58
50394;BME280;36308;46.312;25.288;2023-03-03T00:41:40;96125.25;;;5.42;63.74
50394;BME280;36308;46.312;25.288;2023-03-03T00:46:59;96117.34;;;5.36;63.83
50394;BME280;36308;46.312;25.288;2023-03-03T00:49:27;96118.97;;;5.37;63.39
50394;BME280;36308;46.312;25.288;2023-03-03T00:51:53;96112.44;;;5.33;63.98
50394;BME280;36308;46.312;25.288;2023-03-03T00:54:18;96112.44;;;5.33;63.82
50394;BME280;36308;46.312;25.288;2023-03-03T00:56:44;96114.72;;;5.29;63.70
50394;BME280;36308;46.312;25.288;2023-03-03T00:59:10;96101.47;;;5.22;63.77
50394;BME280;36308;46.312;25.288;2023-03-03T01:01:35;96107.41;;;5.24;64.12
50394;BME280;36308;46.312;25.288;2023-03-03T01:04:01;96108.88;;;5.20;63.58
50394;BME280;36308;46.312;25.288;2023-03-03T01:06:26;96107.28;;;5.19;63.89
50394;BME280;36308;46.312;25.288;2023-03-03T01:08:52;96105.50;;;5.13;64.14
50394;BME280;36308;46.312;25.288;2023-03-03T01:11:21;96108.97;;;5.14;63.80
50394;BME280;36308;46.312;25.288;2023-03-03T01:13:49;96104.09;;;5.11;63.79
50394;BME280;36308;46.312;25.288;2023-03-03T01:16:15;96100.25;;;5.06;64.22
50394;BME280;36308;46.312;25.288;2023-03-03T01:18:41;96106.00;;;5.03;64.13
50394;BME280;36308;46.312;25.288;2023-03-03T01:21:08;96107.25;;;5.01;63.83
50394;BME280;36308;46.312;25.288;2023-03-03T01:23:34;96110.34;;;4.98;64.40
50394;BME280;36308;46.312;25.288;2023-03-03T01:25:59;96104.88;;;4.93;63.92
50394;BME280;36308;46.312;25.288;2023-03-03T01:28:25;96110.63;;;4.90;64.41
50394;BME280;36308;46.312;25.288;2023-03-03T01:30:51;96104.94;;;4.86;64.47
50394;BME280;36308;46.312;25.288;2023-03-03T01:33:16;96103.97;;;4.80;64.04
50394;BME280;36308;46.312;25.288;2023-03-03T01:35:46;96106.03;;;4.78;64.68
50394;BME280;36308;46.312;25.288;2023-03-03T01:38:13;96099.97;;;4.71;64.16
50394;BME280;36308;46.312;25.288;2023-03-03T01:40:39;96096.72;;;4.69;64.70
50394;BME280;36308;46.312;25.288;2023-03-03T01:43:05;96097.56;;;4.63;64.62
50394;BME280;36308;46.312;25.288;2023-03-03T01:51:33;96092.78;;;4.47;64.11
50394;BME280;36308;46.312;25.288;2023-03-03T01:53:57;96089.16;;;4.41;64.09
50394;BME280;36308;46.312;25.288;2023-03-03T01:56:24;96084.69;;;4.35;64.67
50394;BME280;36308;46.312;25.288;2023-03-03T02:01:27;96102.38;;;4.22;64.61
50394;BME280;36308;46.312;25.288;2023-03-03T02:03:53;96092.59;;;4.16;64.34
50394;BME280;36308;46.312;25.288;2023-03-03T02:06:24;96104.50;;;4.14;64.66
50394;BME280;36308;46.312;25.288;2023-03-03T02:08:56;96102.25;;;4.11;65.03
50394;BME280;36308;46.312;25.288;2023-03-03T02:11:24;96101.28;;;4.05;64.53
50394;BME280;36308;46.312;25.288;2023-03-03T02:13:51;96105.16;;;4.02;64.67
50394;BME280;36308;46.312;25.288;2023-03-03T02:16:17;96100.28;;;3.99;65.35
50394;BME280;36308;46.312;25.288;2023-03-03T02:18:42;96096.03;;;3.92;64.58
50394;BME280;36308;46.312;25.288;2023-03-03T02:21:18;96096.88;;;3.92;65.13
50394;BME280;36308;46.312;25.288;2023-03-03T02:26:24;96091.34;;;3.87;65.75
50394;BME280;36308;46.312;25.288;2023-03-03T02:28:51;96089.16;;;3.84;65.89
50394;BME280;36308;46.312;25.288;2023-03-03T02:31:20;96083.44;;;3.80;65.55
50394;BME280;36308;46.312;25.288;2023-03-03T02:33:48;96080.56;;;3.75;65.93
50394;BME280;36308;46.312;25.288;2023-03-03T02:36:16;96092.66;;;3.78;65.64
50394;BME280;36308;46.312;25.288;2023-03-03T02:38:50;96098.97;;;3.77;65.68
50394;BME280;36308;46.312;25.288;2023-03-03T02:46:13;96092.06;;;3.76;65.70
50394;BME280;36308;46.312;25.288;2023-03-03T02:48:38;96087.75;;;3.75;66.11
50394;BME280;36308;46.312;25.288;2023-03-03T02:51:04;96085.09;;;3.75;65.94
50394;BME280;36308;46.312;25.288;2023-03-03T02:53:29;96079.78;;;3.75;66.33
50394;BME280;36308;46.312;25.288;2023-03-03T02:55:55;96079.78;;;3.75;66.09
50394;BME280;36308;46.312;25.288;2023-03-03T02:58:20;96069.94;;;3.75;65.93
50394;BME280;36308;46.312;25.288;2023-03-03T03:00:46;96076.09;;;3.76;66.32
50394;BME280;36308;46.312;25.288;2023-03-03T03:03:12;96080.56;;;3.75;66.71
50394;BME280;36308;46.312;25.288;2023-03-03T03:05:39;96085.69;;;3.77;66.75
50394;BME280;36308;46.312;25.288;2023-03-03T03:08:04;96072.59;;;3.75;66.65
50394;BME280;36308;46.312;25.288;2023-03-03T03:10:30;96071.59;;;3.76;66.43
50394;BME280;36308;46.312;25.288;2023-03-03T03:12:55;96067.06;;;3.77;66.78
50394;BME280;36308;46.312;25.288;2023-03-03T03:15:21;96072.38;;;3.77;66.88
50394;BME280;36308;46.312;25.288;2023-03-03T03:17:46;96067.06;;;3.77;66.01
50394;BME280;36308;46.312;25.288;2023-03-03T03:20:12;96069.53;;;3.78;66.85
50394;BME280;36308;46.312;25.288;2023-03-03T03:22:37;96068.28;;;3.81;66.98
50394;BME280;36308;46.312;25.288;2023-03-03T03:25:03;96064.59;;;3.82;66.99
50394;BME280;36308;46.312;25.288;2023-03-03T03:27:28;96069.09;;;3.81;66.55
50394;BME280;36308;46.312;25.288;2023-03-03T03:29:54;96065.41;;;3.82;67.08
50394;BME280;36308;46.312;25.288;2023-03-03T03:32:19;96063.34;;;3.84;66.79
50394;BME280;36308;46.312;25.288;2023-03-03T03:34:45;96059.66;;;3.85;66.75
50394;BME280;36308;46.312;25.288;2023-03-03T03:37:10;96067.44;;;3.87;66.85
50394;BME280;36308;46.312;25.288;2023-03-03T03:39:36;96057.81;;;3.86;67.28
50394;BME280;36308;46.312;25.288;2023-03-03T03:42:01;96060.66;;;3.91;67.31
50394;BME280;36308;46.312;25.288;2023-03-03T03:44:27;96058.59;;;3.93;66.73
50394;BME280;36308;46.312;25.288;2023-03-03T03:46:53;96068.19;;;3.94;66.78
50394;BME280;36308;46.312;25.288;2023-03-03T03:49:18;96054.72;;;3.89;67.43
50394;BME280;36308;46.312;25.288;2023-03-03T03:51:43;96054.53;;;3.91;66.79
50394;BME280;36308;46.312;25.288;2023-03-03T03:54:09;96059.63;;;3.92;66.76
50394;BME280;36308;46.312;25.288;2023-03-03T03:56:35;96063.47;;;3.96;66.91
50394;BME280;36308;46.312;25.288;2023-03-03T03:59:00;96067.75;;;3.97;66.80
50394;BME280;36308;46.312;25.288;2023-03-03T04:01:26;96056.09;;;3.98;66.71
50394;BME280;36308;46.312;25.288;2023-03-03T04:03:51;96060.38;;;3.99;66.94
50394;BME280;36308;46.312;25.288;2023-03-03T04:06:17;96068.38;;;3.99;66.62
50394;BME280;36308;46.312;25.288;2023-03-03T04:08:43;96053.41;;;3.98;66.61
50394;BME280;36308;46.312;25.288;2023-03-03T04:11:08;96051.81;;;3.97;66.99
50394;BME280;36308;46.312;25.288;2023-03-03T04:13:34;96054.25;;;3.99;67.13
50394;BME280;36308;46.312;25.288;2023-03-03T04:16:00;96049.75;;;3.99;66.36
50394;BME280;36308;46.312;25.288;2023-03-03T04:18:26;96044.03;;;3.96;66.69
50394;BME280;36308;46.312;25.288;2023-03-03T04:20:53;96043.63;;;3.99;67.04
50394;BME280;36308;46.312;25.288;2023-03-03T04:23:19;96048.69;;;4.00;66.85
50394;BME280;36308;46.312;25.288;2023-03-03T04:25:46;96045.44;;;3.98;66.74
50394;BME280;36308;46.312;25.288;2023-03-03T04:28:12;96042.78;;;3.98;67.18
50394;BME280;36308;46.312;25.288;2023-03-03T04:30:38;96038.31;;;3.99;66.86
50394;BME280;36308;46.312;25.288;2023-03-03T04:33:03;96028.28;;;3.94;66.25
50394;BME280;36308;46.312;25.288;2023-03-03T04:35:29;96034.59;;;4.00;66.42
50394;BME280;36308;46.312;25.288;2023-03-03T04:37:54;96030.72;;;3.96;66.89
50394;BME280;36308;46.312;25.288;2023-03-03T04:40:20;96037.03;;;4.01;67.00
50394;BME280;36308;46.312;25.288;2023-03-03T04:42:45;96035.41;;;4.00;67.07
50394;BME280;36308;46.312;25.288;2023-03-03T04:45:11;96039.25;;;4.04;67.08
50394;BME280;36308;46.312;25.288;2023-03-03T04:47:37;96037.44;;;4.05;66.55
50394;BME280;36308;46.312;25.288;2023-03-03T04:50:03;96039.72;;;4.01;66.35
50394;BME280;36308;46.312;25.288;2023-03-03T04:52:28;96047.25;;;4.04;66.41
50394;BME280;36308;46.312;25.288;2023-03-03T04:54:54;96043.56;;;4.05;66.97
50394;BME280;36308;46.312;25.288;2023-03-03T04:57:19;96044.59;;;4.04;66.96
50394;BME280;36308;46.312;25.288;2023-03-03T04:59:45;96048.06;;;4.05;66.33
50394;BME280;36308;46.312;25.288;2023-03-03T05:02:10;96040.91;;;4.05;66.84
50394;BME280;36308;46.312;25.288;2023-03-03T05:04:37;96048.28;;;4.03;66.74
50394;BME280;36308;46.312;25.288;2023-03-03T05:07:03;96050.50;;;4.07;66.77
50394;BME280;36308;46.312;25.288;2023-03-03T05:09:29;96043.56;;;4.05;66.92
50394;BME280;36308;46.312;25.288;2023-03-03T05:11:54;96037.78;;;4.09;67.13
50394;BME280;36308;46.312;25.288;2023-03-03T05:14:20;96046.38;;;4.11;66.78
50394;BME280;36308;46.312;25.288;2023-03-03T05:16:45;96039.44;;;4.10;66.96
50394;BME280;36308;46.312;25.288;2023-03-03T05:19:11;96041.50;;;4.08;66.36
50394;BME280;36308;46.312;25.288;2023-03-03T05:21:36;96048.03;;;4.12;66.50
50394;BME280;36308;46.312;25.288;2023-03-03T05:24:07;96045.16;;;4.13;66.84
50394;BME280;36308;46.312;25.288;2023-03-03T05:26:33;96052.09;;;4.14;66.73
50394;BME280;36308;46.312;25.288;2023-03-03T05:28:59;96044.75;;;4.10;66.85
50394;BME280;36308;46.312;25.288;2023-03-03T05:31:24;96055.56;;;4.15;67.21
50394;BME280;36308;46.312;25.288;2023-03-03T05:33:52;96045.97;;;4.14;66.71
50394;BME280;36308;46.312;25.288;2023-03-03T05:36:17;96056.16;;;4.17;66.73
50394;BME280;36308;46.312;25.288;2023-03-03T05:38:43;96049.22;;;4.16;66.51
50394;BME280;36308;46.312;25.288;2023-03-03T05:41:08;96044.97;;;4.08;66.74
50394;BME280;36308;46.312;25.288;2023-03-03T05:43:34;96049.22;;;4.16;66.68
50394;BME280;36308;46.312;25.288;2023-03-03T05:46:00;96049.16;;;4.22;66.82
50394;BME280;36308;46.312;25.288;2023-03-03T05:48:26;96052.88;;;4.21;66.71
50394;BME280;36308;46.312;25.288;2023-03-03T05:50:51;96054.28;;;4.24;66.87
50394;BME280;36308;46.312;25.288;2023-03-03T05:53:17;96058.34;;;4.27;67.24
50394;BME280;36308;46.312;25.288;2023-03-03T05:55:43;96053.41;;;4.30;67.13
50394;BME280;36308;46.312;25.288;2023-03-03T05:58:08;96047.03;;;4.31;66.52
50394;BME280;36308;46.312;25.288;2023-03-03T06:00:34;96055.63;;;4.33;67.07
50394;BME280;36308;46.312;25.288;2023-03-03T06:02:59;96051.94;;;4.34;66.42
50394;BME280;36308;46.312;25.288;2023-03-03T06:05:25;96054.16;;;4.37;67.24
50394;BME280;36308;46.312;25.288;2023-03-03T06:07:50;96050.03;;;4.41;66.50
50394;BME280;36308;46.312;25.288;2023-03-03T06:10:16;96046.09;;;4.44;66.90
50394;BME280;36308;46.312;25.288;2023-03-03T06:12:42;96053.06;;;4.45;66.79
50394;BME280;36308;46.312;25.288;2023-03-03T06:15:08;96048.13;;;4.49;66.76
50394;BME280;36308;46.312;25.288;2023-03-03T06:17:34;96040.34;;;4.47;67.09
50394;BME280;36308;46.312;25.288;2023-03-03T06:20:00;96043.41;;;4.51;66.51
50394;BME280;36308;46.312;25.288;2023-03-03T06:22:25;96064.44;;;4.59;66.67
50394;BME280;36308;46.312;25.288;2023-03-03T06:24:51;96046.06;;;4.51;66.82
50394;BME280;36308;46.312;25.288;2023-03-03T06:27:17;96059.47;;;4.62;66.58
50394;BME280;36308;46.312;25.288;2023-03-03T06:29:43;96062.28;;;4.68;66.76
50394;BME280;36308;46.312;25.288;2023-03-03T06:32:09;96064.28;;;4.72;66.27
50394;BME280;36308;46.312;25.288;2023-03-03T06:34:35;96052.38;;;4.75;66.33
50394;BME280;36308;46.312;25.288;2023-03-03T06:37:01;96033.59;;;4.70;66.27
50394;BME280;36308;46.312;25.288;2023-03-03T06:39:26;96049.00;;;4.86;66.60
50394;BME280;36308;46.312;25.288;2023-03-03T06:41:52;96042.84;;;4.85;65.98
50394;BME280;36308;46.312;25.288;2023-03-03T06:44:17;96051.59;;;4.93;66.34
50394;BME280;36308;46.312;25.288;2023-03-03T06:46:43;96054.19;;;4.99;66.69
50394;BME280;36308;46.312;25.288;2023-03-03T06:49:08;96054.56;;;5.03;66.56
50394;BME280;36308;46.312;25.288;2023-03-03T06:51:38;96055.53;;;5.09;65.90
50394;BME280;36308;46.312;25.288;2023-03-03T06:54:15;96066.31;;;5.14;66.22
50394;BME280;36308;46.312;25.288;2023-03-03T06:56:42;96050.72;;;5.17;66.04
50394;BME280;36308;46.312;25.288;2023-03-03T06:59:14;96057.34;;;5.26;66.08
50394;BME280;36308;46.312;25.288;2023-03-03T07:01:40;96053.78;;;5.33;66.02
50394;BME280;36308;46.312;25.288;2023-03-03T07:04:24;96050.81;;;5.41;65.80
50394;BME280;36308;46.312;25.288;2023-03-03T07:06:54;96054.81;;;5.50;65.89
50394;BME280;36308;46.312;25.288;2023-03-03T07:09:23;96053.94;;;5.56;65.84
50394;BME280;36308;46.312;25.288;2023-03-03T07:12:17;96059.53;;;5.66;65.34
50394;BME280;36308;46.312;25.288;2023-03-03T07:14:49;96057.59;;;5.74;65.01
50394;BME280;36308;46.312;25.288;2023-03-03T07:17:21;96052.16;;;5.80;65.22
50394;BME280;36308;46.312;25.288;2023-03-03T07:19:48;96047.78;;;5.86;65.03
50394;BME280;36308;46.312;25.288;2023-03-03T07:22:19;96057.31;;;5.94;64.51
50394;BME280;36308;46.312;25.288;2023-03-03T07:24:48;96056.19;;;6.01;64.66
50394;BME280;36308;46.312;25.288;2023-03-03T07:27:26;96054.47;;;6.07;64.26
50394;BME280;36308;46.312;25.288;2023-03-03T07:29:54;96039.25;;;6.07;64.32
50394;BME280;36308;46.312;25.288;2023-03-03T07:32:54;96047.66;;;6.23;64.14
50394;BME280;36308;46.312;25.288;2023-03-03T07:35:37;96050.59;;;6.33;63.58
50394;BME280;36308;46.312;25.288;2023-03-03T07:40:49;96041.53;;;6.46;63.02
50394;BME280;36308;46.312;25.288;2023-03-03T07:43:33;96047.56;;;6.53;62.90
50394;BME280;36308;46.312;25.288;2023-03-03T07:48:40;96036.31;;;6.63;62.66
50394;BME280;36308;46.312;25.288;2023-03-03T07:53:53;96030.72;;;6.76;62.58
50394;BME280;36308;46.312;25.288;2023-03-03T07:58:50;96031.22;;;6.85;62.07
50394;BME280;36308;46.312;25.288;2023-03-03T08:03:54;96031.88;;;7.04;62.26
50394;BME280;36308;46.312;25.288;2023-03-03T08:09:35;96030.00;;;7.16;61.86
50394;BME280;36308;46.312;25.288;2023-03-03T08:12:30;96034.97;;;7.24;61.65
50394;BME280;36308;46.312;25.288;2023-03-03T08:15:24;96033.78;;;7.32;62.03
50394;BME280;36308;46.312;25.288;2023-03-03T08:17:54;96034.25;;;7.41;61.21
50394;BME280;36308;46.312;25.288;2023-03-03T08:20:43;96034.91;;;7.48;61.13
50394;BME280;36308;46.312;25.288;2023-03-03T08:23:11;96028.81;;;7.53;61.06
50394;BME280;36308;46.312;25.288;2023-03-03T08:25:36;96026.59;;;7.61;61.00
50394;BME280;36308;46.312;25.288;2023-03-03T08:28:02;96024.03;;;7.66;60.65
50394;BME280;36308;46.312;25.288;2023-03-03T08:30:28;96030.03;;;7.74;60.50
50394;BME280;36308;46.312;25.288;2023-03-03T08:32:53;96021.03;;;7.80;60.84
50394;BME280;36308;46.312;25.288;2023-03-03T08:35:19;96024.97;;;7.89;60.74
50394;BME280;36308;46.312;25.288;2023-03-03T08:37:44;96028.88;;;7.98;60.77
50394;BME280;36308;46.312;25.288;2023-03-03T08:40:11;96025.56;;;8.08;60.55
50394;BME280;36308;46.312;25.288;2023-03-03T08:42:37;96025.41;;;8.15;60.10
50394;BME280;36308;46.312;25.288;2023-03-03T08:45:02;96031.72;;;8.25;59.88
50394;BME280;36308;46.312;25.288;2023-03-03T08:47:28;96033.19;;;8.33;59.83
50394;BME280;36308;46.312;25.288;2023-03-03T08:49:54;96031.75;;;8.42;59.78
50394;BME280;36308;46.312;25.288;2023-03-03T08:52:19;96026.00;;;8.50;60.08
50394;BME280;36308;46.312;25.288;2023-03-03T08:54:45;96030.72;;;8.60;60.28
50394;BME280;36308;46.312;25.288;2023-03-03T08:57:29;96024.19;;;8.73;59.48
50394;BME280;36308;46.312;25.288;2023-03-03T08:59:54;96010.94;;;8.83;59.87
50394;BME280;36308;46.312;25.288;2023-03-03T09:02:20;96020.81;;;9.00;58.93
50394;BME280;36308;46.312;25.288;2023-03-03T09:04:45;96019.91;;;9.11;59.02
50394;BME280;36308;46.312;25.288;2023-03-03T09:07:11;96006.59;;;9.21;58.95
50394;BME280;36308;46.312;25.288;2023-03-03T09:09:36;96012.72;;;9.39;58.48
50394;BME280;36308;46.312;25.288;2023-03-03T09:12:14;96008.59;;;9.53;57.76
50394;BME280;36308;46.312;25.288;2023-03-03T09:14:40;96006.03;;;9.63;57.37
50394;BME280;36308;46.312;25.288;2023-03-03T09:17:39;96005.03;;;9.69;56.90
50394;BME280;36308;46.312;25.288;2023-03-03T09:23:24;96004.78;;;9.98;56.72
50394;BME280;36308;46.312;25.288;2023-03-03T09:25:52;95999.78;;;10.12;56.28
50394;BME280;36308;46.312;25.288;2023-03-03T09:30:49;95998.84;;;10.28;55.69
50394;BME280;36308;46.312;25.288;2023-03-03T09:33:26;95998.66;;;10.35;55.46
50394;BME280;36308;46.312;25.288;2023-03-03T09:38:43;96003.09;;;10.51;54.89
50394;BME280;36308;46.312;25.288;2023-03-03T09:47:09;95981.78;;;10.82;54.42
50394;BME280;36308;46.312;25.288;2023-03-03T09:56:10;95976.25;;;11.04;52.01
50394;BME280;36308;46.312;25.288;2023-03-03T10:06:46;95977.66;;;11.17;51.68
50394;BME280;36308;46.312;25.288;2023-03-03T10:09:32;95979.25;;;11.18;51.96
50394;BME280;36308;46.312;25.288;2023-03-03T10:15:24;95973.91;;;11.23;52.05
50394;BME280;36308;46.312;25.288;2023-03-03T10:23:20;95962.13;;;11.40;51.81
50394;BME280;36308;46.312;25.288;2023-03-03T10:34:28;95950.06;;;11.52;50.66
50394;BME280;36308;46.312;25.288;2023-03-03T10:47:48;95929.34;;;11.58;49.00
50394;BME280;36308;46.312;25.288;2023-03-03T10:56:07;95916.16;;;11.67;48.81
50394;BME280;36308;46.312;25.288;2023-03-03T11:21:00;95900.28;;;11.70;47.51
50394;BME280;36308;46.312;25.288;2023-03-03T11:29:00;95900.25;;;11.60;47.15
50394;BME280;36308;46.312;25.288;2023-03-03T11:39:11;95885.47;;;11.73;47.73
50394;BME280;36308;46.312;25.288;2023-03-03T11:41:41;95882.78;;;11.73;47.74
50394;BME280;36308;46.312;25.288;2023-03-03T11:46:55;95897.06;;;11.84;46.77
50394;BME280;36308;46.312;25.288;2023-03-03T11:49:46;95894.06;;;11.80;47.08
50394;BME280;36308;46.312;25.288;2023-03-03T12:00:40;95876.56;;;11.62;46.99
50394;BME280;36308;46.312;25.288;2023-03-03T12:05:53;95889.50;;;11.60;47.77
50394;BME280;36308;46.312;25.288;2023-03-03T12:24:38;95880.28;;;11.30;46.87
50394;BME280;36308;46.312;25.288;2023-03-03T12:37:50;95874.59;;;11.22;47.10
50394;BME280;36308;46.312;25.288;2023-03-03T12:44:01;95877.00;;;11.18;47.90
50394;BME280;36308;46.312;25.288;2023-03-03T12:49:00;95880.50;;;11.13;47.63
50394;BME280;36308;46.312;25.288;2023-03-03T13:04:43;95870.50;;;11.04;47.76
50394;BME280;36308;46.312;25.288;2023-03-03T13:07:18;95875.09;;;11.03;48.19
50394;BME280;36308;46.312;25.288;2023-03-03T13:10:11;95871.06;;;11.01;47.59
50394;BME280;36308;46.312;25.288;2023-03-03T13:21:23;95862.44;;;10.94;48.06
50394;BME280;36308;46.312;25.288;2023-03-03T13:24:06;95865.88;;;10.89;48.08
50394;BME280;36308;46.312;25.288;2023-03-03T13:26:42;95868.81;;;10.82;48.13
50394;BME280;36308;46.312;25.288;2023-03-03T13:29:24;95858.81;;;10.72;47.77
50394;BME280;36308;46.312;25.288;2023-03-03T13:37:26;95868.50;;;10.68;48.21
50394;BME280;36308;46.312;25.288;2023-03-03T13:45:15;95859.13;;;10.71;48.13
50394;BME280;36308;46.312;25.288;2023-03-03T13:47:49;95859.66;;;10.73;47.98
50394;BME280;36308;46.312;25.288;2023-03-03T14:06:14;95860.91;;;10.60;47.45
50394;BME280;36308;46.312;25.288;2023-03-03T14:23:09;95830.50;;;10.44;48.14
50394;BME280;36308;46.312;25.288;2023-03-03T14:25:57;95831.06;;;10.51;48.79
50394;BME280;36308;46.312;25.288;2023-03-03T14:28:27;95829.94;;;10.47;48.42
50394;BME280;36308;46.312;25.288;2023-03-03T14:30:56;95843.44;;;10.52;48.38
50394;BME280;36308;46.312;25.288;2023-03-03T14:33:27;95836.97;;;10.48;47.56
50394;BME280;36308;46.312;25.288;2023-03-03T14:38:45;95834.47;;;10.37;46.85
50394;BME280;36308;46.312;25.288;2023-03-03T14:43:40;95828.22;;;10.26;47.42
50394;BME280;36308;46.312;25.288;2023-03-03T14:49:17;95841.03;;;10.14;47.80
50394;BME280;36308;46.312;25.288;2023-03-03T14:52:01;95844.78;;;10.12;47.71
50394;BME280;36308;46.312;25.288;2023-03-03T14:54:33;95832.94;;;10.08;48.49
50394;BME280;36308;46.312;25.288;2023-03-03T14:57:18;95844.22;;;10.10;47.74
50394;BME280;36308;46.312;25.288;2023-03-03T14:59:55;95842.06;;;10.07;48.08
50394;BME280;36308;46.312;25.288;2023-03-03T15:03:01;95833.75;;;10.09;47.86
50394;BME280;36308;46.312;25.288;2023-03-03T15:05:31;95839.13;;;10.09;46.98
50394;BME280;36308;46.312;25.288;2023-03-03T15:10:39;95835.06;;;10.06;47.47
50394;BME280;36308;46.312;25.288;2023-03-03T15:18:23;95819.41;;;9.93;47.88
50394;BME280;36308;46.312;25.288;2023-03-03T15:21:04;95840.97;;;10.03;47.17
50394;BME280;36308;46.312;25.288;2023-03-03T15:29:32;95840.91;;;9.93;46.69
50394;BME280;36308;46.312;25.288;2023-03-03T15:35:25;95839.22;;;9.82;46.49
50394;BME280;36308;46.312;25.288;2023-03-03T15:38:00;95849.13;;;9.81;47.65
50394;BME280;36308;46.312;25.288;2023-03-03T15:56:49;95853.75;;;9.54;45.99
50394;BME280;36308;46.312;25.288;2023-03-03T16:04:32;95853.31;;;9.35;46.48
50394;BME280;36308;46.312;25.288;2023-03-03T16:10:11;95860.44;;;9.24;46.52
50394;BME280;36308;46.312;25.288;2023-03-03T16:12:50;95871.38;;;9.17;46.11
50394;BME280;36308;46.312;25.288;2023-03-03T16:20:57;95869.53;;;8.96;46.59
50394;BME280;36308;46.312;25.288;2023-03-03T16:23:38;95863.56;;;8.88;46.78
50394;BME280;36308;46.312;25.288;2023-03-03T16:26:35;95860.19;;;8.76;47.49
50394;BME280;36308;46.312;25.288;2023-03-03T16:31:35;95878.88;;;8.71;47.99
50394;BME280;36308;46.312;25.288;2023-03-03T16:34:31;95880.41;;;8.62;48.29
50394;BME280;36308;46.312;25.288;2023-03-03T16:37:17;95880.03;;;8.53;47.61
50394;BME280;36308;46.312;25.288;2023-03-03T16:42:30;95881.88;;;8.36;48.61
50394;BME280;36308;46.312;25.288;2023-03-03T16:47:54;95896.38;;;8.18;48.77
50394;BME280;36308;46.312;25.288;2023-03-03T16:56:28;95901.25;;;7.87;49.35
50394;BME280;36308;46.312;25.288;2023-03-03T17:02:25;95909.53;;;7.68;49.63
50394;BME280;36308;46.312;25.288;2023-03-03T17:04:39;95905.59;;;7.59;49.76
50394;BME280;36308;46.312;25.288;2023-03-03T17:10:36;95912.25;;;7.40;50.17
50394;BME280;36308;46.312;25.288;2023-03-03T17:13:22;95914.50;;;7.31;50.62
50394;BME280;36308;46.312;25.288;2023-03-03T17:16:21;95917.78;;;7.21;50.57
50394;BME280;36308;46.312;25.288;2023-03-03T17:32:08;95921.53;;;6.68;51.64
50394;BME280;36308;46.312;25.288;2023-03-03T17:37:55;95925.91;;;6.45;52.07
50394;BME280;36308;46.312;25.288;2023-03-03T17:45:44;95932.28;;;6.21;52.62
50394;BME280;36308;46.312;25.288;2023-03-03T17:48:39;95924.25;;;6.09;52.78
50394;BME280;36308;46.312;25.288;2023-03-03T17:52:05;95914.16;;;5.99;52.80
50394;BME280;36308;46.312;25.288;2023-03-03T17:57:24;95930.38;;;5.86;53.36
50394;BME280;36308;46.312;25.288;2023-03-03T18:17:22;95964.69;;;5.40;54.42
50394;BME280;36308;46.312;25.288;2023-03-03T18:25:14;95959.78;;;5.25;54.82
50394;BME280;36308;46.312;25.288;2023-03-03T18:27:41;95961.28;;;5.21;55.25
50394;BME280;36308;46.312;25.288;2023-03-03T18:32:59;95962.59;;;5.12;55.69
50394;BME280;36308;46.312;25.288;2023-03-03T18:35:40;95963.06;;;5.09;55.71
50394;BME280;36308;46.312;25.288;2023-03-03T18:41:00;95971.38;;;5.01;56.12
50394;BME280;36308;46.312;25.288;2023-03-03T18:46:04;95964.09;;;4.90;56.12
50394;BME280;36308;46.312;25.288;2023-03-03T18:51:47;95965.47;;;4.80;56.82
50394;BME280;36308;46.312;25.288;2023-03-03T19:07:45;95978.47;;;4.52;57.46
50394;BME280;36308;46.312;25.288;2023-03-03T19:12:50;95978.53;;;4.45;57.13
50394;BME280;36308;46.312;25.288;2023-03-03T19:18:24;95984.34;;;4.35;57.46
50394;BME280;36308;46.312;25.288;2023-03-03T19:26:35;95977.75;;;4.19;57.72
50394;BME280;36308;46.312;25.288;2023-03-03T19:29:17;95994.53;;;4.20;57.69
50394;BME280;36308;46.312;25.288;2023-03-03T19:40:02;95996.53;;;3.99;58.37
50394;BME280;36308;46.312;25.288;2023-03-03T19:48:07;96006.09;;;3.82;59.03
50394;BME280;36308;46.312;25.288;2023-03-03T19:50:50;96003.25;;;3.77;58.51
50394;BME280;36308;46.312;25.288;2023-03-03T19:56:19;96013.53;;;3.67;58.71
50394;BME280;36308;46.312;25.288;2023-03-03T20:02:22;96021.97;;;3.63;59.13
50394;BME280;36308;46.312;25.288;2023-03-03T20:04:33;96013.59;;;3.60;59.75
50394;BME280;36308;46.312;25.288;2023-03-03T20:09:39;96001.00;;;3.42;59.84
50394;BME280;36308;46.312;25.288;2023-03-03T20:15:15;96003.50;;;3.37;59.82
50394;BME280;36308;46.312;25.288;2023-03-03T20:25:47;96034.41;;;3.31;60.24
50394;BME280;36308;46.312;25.288;2023-03-03T20:30:53;96036.28;;;3.24;60.27
50394;BME280;36308;46.312;25.288;2023-03-03T20:36:35;96042.84;;;3.15;60.18
50394;BME280;36308;46.312;25.288;2023-03-03T20:39:24;96045.94;;;3.12;60.52
50394;BME280;36308;46.312;25.288;2023-03-03T20:47:58;96022.09;;;2.92;60.71
50394;BME280;36308;46.312;25.288;2023-03-03T21:01:05;96037.03;;;2.79;60.21